Time;durP1;ratioP1;P1;durP2;ratioP2;P2;SDS_P1;SDS_P2;PMS_P1;PMS_P2;Temp;Humidity;BMP_temperature;BMP_pressure;BME280_temperature;BME280_humidity;BME280_pressure;Samples;Min_cycle;Max_cycle;Signal;HPM_P1;HPM_P2
2022/05/13 00:00:43;;;;;;;7.60;3.20;;;10.60;99.90;;;;;;5027767;28;20064;-74
2022/05/13 00:03:09;;;;;;;6.57;2.67;;;10.50;99.90;;;;;;5010105;28;20463;-74
2022/05/13 00:05:35;;;;;;;11.70;3.08;;;10.50;99.90;;;;;;5025524;28;20542;-74
2022/05/13 00:08:01;;;;;;;9.77;3.17;;;10.50;99.90;;;;;;5024554;28;20439;-74
2022/05/13 00:10:27;;;;;;;10.55;2.92;;;10.50;99.90;;;;;;5025597;28;20044;-74
2022/05/13 00:12:52;;;;;;;7.60;2.88;;;10.50;99.90;;;;;;5022398;28;21463;-74
2022/05/13 00:15:21;;;;;;;10.05;2.97;;;10.50;99.90;;;;;;5025016;28;20037;-74
2022/05/13 00:17:47;;;;;;;8.18;3.15;;;10.50;99.90;;;;;;5024094;28;20492;-74
2022/05/13 00:20:14;;;;;;;8.57;3.28;;;10.50;99.90;;;;;;5028947;28;20036;-74
2022/05/13 00:22:49;;;;;;;6.93;3.03;;;10.50;99.90;;;;;;5026642;28;20406;-74
2022/05/13 00:25:17;;;;;;;10.18;3.15;;;10.50;99.90;;;;;;5020869;28;20033;-74
2022/05/13 00:27:42;;;;;;;9.40;3.40;;;10.50;99.90;;;;;;5042438;28;20124;-74
2022/05/13 00:30:09;;;;;;;8.77;3.13;;;10.60;99.90;;;;;;5029408;28;20463;-74
2022/05/13 00:32:35;;;;;;;10.63;2.88;;;10.60;99.90;;;;;;5010658;28;20049;-74
2022/05/13 00:35:01;;;;;;;7.53;2.78;;;10.60;99.90;;;;;;5019396;28;20400;-74
2022/05/13 00:37:27;;;;;;;7.20;3.03;;;10.60;99.90;;;;;;5031777;28;20045;-74
2022/05/13 00:39:52;;;;;;;8.25;2.72;;;10.60;99.90;;;;;;5027805;28;20107;-74
2022/05/13 00:42:19;;;;;;;7.30;3.30;;;10.70;99.90;;;;;;5035620;28;20052;-74
2022/05/13 00:44:45;;;;;;;6.55;2.83;;;10.80;99.90;;;;;;5026389;28;20406;-74
2022/05/13 00:47:12;;;;;;;9.30;3.38;;;10.80;99.90;;;;;;5027792;28;20045;-74
2022/05/13 00:49:39;;;;;;;9.45;3.28;;;10.80;99.90;;;;;;5031196;28;20033;-74
2022/05/13 00:52:08;;;;;;;9.60;3.45;;;10.80;99.90;;;;;;5027010;28;20041;-74
2022/05/13 00:54:35;;;;;;;6.88;3.33;;;10.90;99.90;;;;;;5030490;28;20084;-74
2022/05/13 00:57:01;;;;;;;8.90;3.08;;;10.90;99.90;;;;;;5028207;28;20037;-74
2022/05/13 00:59:30;;;;;;;7.63;2.85;;;10.90;99.90;;;;;;5029813;28;20037;-74
2022/05/13 01:01:57;;;;;;;11.00;3.15;;;10.90;99.90;;;;;;5029051;28;20061;-74
2022/05/13 01:04:24;;;;;;;7.22;3.15;;;11.00;99.90;;;;;;5030091;28;20033;-74
2022/05/13 01:06:57;;;;;;;8.73;2.95;;;11.00;99.90;;;;;;5031204;28;20550;-75
2022/05/13 01:09:26;;;;;;;8.32;3.00;;;11.10;99.90;;;;;;5024407;28;20087;-75
2022/05/13 01:11:57;;;;;;;7.40;3.03;;;11.10;99.90;;;;;;5023690;28;20045;-74
2022/05/13 01:14:31;;;;;;;8.20;2.78;;;11.20;99.90;;;;;;5012144;28;20037;-75
2022/05/13 01:20:23;;;;;;;5.57;2.13;;;11.20;99.90;;;;;;5024899;28;20124;-74
2022/05/13 01:22:55;;;;;;;8.35;2.70;;;11.20;99.90;;;;;;5026724;28;20148;-75
2022/05/13 01:25:24;;;;;;;9.95;2.35;;;11.30;99.90;;;;;;5028246;28;20046;-74
2022/05/13 01:27:52;;;;;;;9.88;2.40;;;11.40;99.90;;;;;;5030869;28;20049;-74
2022/05/13 01:30:25;;;;;;;7.88;2.60;;;11.40;99.90;;;;;;5026881;28;20029;-74
2022/05/13 01:32:51;;;;;;;9.02;2.90;;;11.40;99.90;;;;;;5026754;28;20076;-74
2022/05/13 01:35:17;;;;;;;7.43;2.67;;;11.50;99.90;;;;;;5026823;28;20049;-74
2022/05/13 01:37:43;;;;;;;5.70;2.47;;;11.50;99.90;;;;;;5017422;28;20046;-74
2022/05/13 01:40:10;;;;;;;7.60;2.50;;;11.50;99.90;;;;;;5040078;28;20038;-74
2022/05/13 01:42:36;;;;;;;7.82;2.45;;;11.50;99.90;;;;;;5028003;28;20041;-74
2022/05/13 01:45:04;;;;;;;6.85;2.22;;;11.50;99.90;;;;;;5007159;28;20076;-75
2022/05/13 01:47:30;;;;;;;7.70;2.28;;;11.50;99.90;;;;;;5018693;28;20104;-74
2022/05/13 01:49:57;;;;;;;5.55;2.25;;;11.50;99.90;;;;;;5030418;28;20121;-75
2022/05/13 01:52:23;;;;;;;9.98;2.30;;;11.50;99.90;;;;;;5033179;28;20041;-74
2022/05/13 01:54:49;;;;;;;6.25;2.20;;;11.60;99.90;;;;;;5023273;28;20042;-74
2022/05/13 01:57:15;;;;;;;8.88;2.95;;;11.60;99.90;;;;;;5013964;28;20463;-74
2022/05/13 01:59:42;;;;;;;9.10;2.35;;;11.50;99.90;;;;;;5012546;28;20902;-74
2022/05/13 02:02:08;;;;;;;9.60;2.78;;;11.50;99.90;;;;;;5015635;28;20038;-74
2022/05/13 02:04:34;;;;;;;6.85;2.75;;;11.60;99.90;;;;;;5027654;28;20045;-74
2022/05/13 02:06:59;;;;;;;5.57;2.70;;;11.50;99.90;;;;;;5025448;28;20068;-74
2022/05/13 02:09:25;;;;;;;8.35;2.45;;;11.50;99.90;;;;;;5034626;28;20029;-75
2022/05/13 02:11:51;;;;;;;7.63;2.00;;;11.50;99.90;;;;;;5032817;28;20041;-74
2022/05/13 02:14:18;;;;;;;9.43;2.20;;;11.50;99.90;;;;;;5031735;28;20034;-74
2022/05/13 02:16:44;;;;;;;10.95;3.00;;;11.40;99.90;;;;;;5017875;28;20041;-74
2022/05/13 02:19:10;;;;;;;7.55;2.85;;;11.40;99.90;;;;;;5034813;28;20056;-74
2022/05/13 02:21:37;;;;;;;6.55;2.33;;;11.40;99.90;;;;;;5014587;28;20046;-74
2022/05/13 02:24:05;;;;;;;6.55;2.50;;;11.40;99.90;;;;;;5027079;28;20087;-74
2022/05/13 02:26:31;;;;;;;8.00;2.70;;;11.40;99.90;;;;;;5018659;28;20049;-75
2022/05/13 02:29:01;;;;;;;10.60;2.88;;;11.40;99.90;;;;;;5028542;28;20079;-74
2022/05/13 02:31:30;;;;;;;8.40;2.42;;;11.40;99.90;;;;;;5024634;28;20037;-75
2022/05/13 02:33:59;;;;;;;9.65;2.80;;;11.50;99.90;;;;;;5027280;28;20072;-74
2022/05/13 02:36:26;;;;;;;8.15;2.70;;;11.50;99.90;;;;;;5037672;28;20083;-74
2022/05/13 02:38:52;;;;;;;10.48;2.67;;;11.50;99.90;;;;;;5028745;28;20075;-74
2022/05/13 02:41:18;;;;;;;8.13;2.58;;;11.50;99.90;;;;;;5026709;28;20040;-75
2022/05/13 02:43:56;;;;;;;9.80;3.03;;;11.50;99.90;;;;;;5027191;28;20045;-74
2022/05/13 02:46:26;;;;;;;11.15;2.95;;;11.50;99.90;;;;;;5025282;28;20068;-73
2022/05/13 02:48:52;;;;;;;11.10;3.45;;;11.50;99.90;;;;;;5027754;28;20116;-73
2022/05/13 02:51:19;;;;;;;9.50;3.00;;;11.40;99.90;;;;;;5007377;28;20045;-73
2022/05/13 02:53:45;;;;;;;8.73;3.08;;;11.40;99.90;;;;;;5028473;28;20041;-74
2022/05/13 02:56:11;;;;;;;8.15;2.70;;;11.40;99.90;;;;;;5027451;28;20041;-74
2022/05/13 02:58:38;;;;;;;9.77;2.58;;;11.40;99.90;;;;;;5028033;28;20040;-74
2022/05/13 03:01:06;;;;;;;5.43;2.65;;;11.30;99.90;;;;;;5025640;28;20037;-74
2022/05/13 03:03:31;;;;;;;8.82;2.75;;;11.40;99.90;;;;;;5029589;28;20033;-73
2022/05/13 03:05:59;;;;;;;8.95;2.80;;;11.30;99.90;;;;;;5024337;28;20076;-74
2022/05/13 03:08:25;;;;;;;7.75;2.80;;;11.30;99.90;;;;;;5022097;28;20041;-74
2022/05/13 03:10:50;;;;;;;11.25;3.60;;;11.30;99.90;;;;;;5026084;28;20055;-74
2022/05/13 03:13:19;;;;;;;6.72;2.70;;;11.30;99.90;;;;;;5039885;28;20087;-75
2022/05/13 03:15:45;;;;;;;10.25;2.95;;;11.30;99.90;;;;;;5033282;28;20049;-74
2022/05/13 03:18:11;;;;;;;10.15;2.72;;;11.30;99.90;;;;;;5014902;28;20049;-76
2022/05/13 03:20:37;;;;;;;12.23;3.28;;;11.30;99.90;;;;;;5029902;28;20041;-74
2022/05/13 03:23:04;;;;;;;12.43;3.33;;;11.30;99.90;;;;;;5026213;28;20033;-74
2022/05/13 03:25:30;;;;;;;11.95;2.95;;;11.30;99.90;;;;;;5028823;28;20045;-74
2022/05/13 03:27:56;;;;;;;11.27;3.05;;;11.30;99.90;;;;;;5027805;28;20034;-74
2022/05/13 03:30:24;;;;;;;10.13;3.05;;;11.30;99.90;;;;;;5011447;28;20061;-74
2022/05/13 03:32:51;;;;;;;11.95;3.10;;;11.30;99.90;;;;;;5032801;28;20044;-74
2022/05/13 03:35:18;;;;;;;7.85;2.67;;;11.30;99.90;;;;;;5031643;28;20069;-75
2022/05/13 03:37:44;;;;;;;8.30;2.65;;;11.30;99.90;;;;;;5049055;28;20041;-74
2022/05/13 03:40:12;;;;;;;10.18;3.13;;;11.40;99.90;;;;;;4984521;28;20045;-74
2022/05/13 03:42:46;;;;;;;12.48;3.25;;;11.40;99.90;;;;;;4999572;28;20052;-74
2022/05/13 03:45:14;;;;;;;8.90;3.25;;;11.30;99.90;;;;;;5027136;28;20136;-74
2022/05/13 03:47:39;;;;;;;8.30;2.72;;;11.20;99.90;;;;;;5022627;28;20038;-74
2022/05/13 03:50:07;;;;;;;9.93;2.80;;;11.30;99.90;;;;;;5028494;28;20045;-75
2022/05/13 03:52:33;;;;;;;10.90;2.80;;;11.30;99.90;;;;;;5047024;28;20561;-74
2022/05/13 03:54:58;;;;;;;8.15;3.08;;;11.20;99.90;;;;;;5031211;28;20132;-74
2022/05/13 03:57:24;;;;;;;10.68;3.17;;;11.30;99.90;;;;;;5026610;28;20040;-74
2022/05/13 03:59:50;;;;;;;9.52;3.22;;;11.20;99.90;;;;;;5032725;28;20041;-74
2022/05/13 04:02:16;;;;;;;10.90;3.20;;;11.20;99.90;;;;;;5030026;28;20038;-74
2022/05/13 04:10:13;;;;;;;14.55;3.35;;;11.20;99.90;;;;;;5025973;28;20080;-74
2022/05/13 04:18:07;;;;;;;7.25;2.65;;;11.20;99.90;;;;;;5033284;28;20041;-74
2022/05/13 04:20:34;;;;;;;11.30;3.22;;;11.30;99.90;;;;;;5032377;28;20045;-74
2022/05/13 04:23:00;;;;;;;15.65;3.70;;;11.20;99.90;;;;;;5052847;28;20068;-74
2022/05/13 04:25:26;;;;;;;14.95;4.18;;;11.30;99.90;;;;;;5035546;28;20093;-74
2022/05/13 04:27:52;;;;;;;12.65;3.17;;;11.30;99.90;;;;;;5034633;28;20666;-73
2022/05/13 04:30:18;;;;;;;12.35;3.55;;;11.30;99.90;;;;;;5029285;28;20052;-75
2022/05/13 04:32:44;;;;;;;18.65;3.88;;;11.20;99.90;;;;;;5020835;28;20068;-74
2022/05/13 04:35:11;;;;;;;17.75;3.97;;;11.40;99.90;;;;;;5020049;28;20129;-75
2022/05/13 04:37:38;;;;;;;10.63;3.50;;;11.40;99.90;;;;;;5028972;28;20124;-75
2022/05/13 04:40:06;;;;;;;16.60;4.05;;;11.40;99.90;;;;;;5019620;28;20044;-74
2022/05/13 04:42:50;;;;;;;11.55;3.60;;;11.40;99.90;;;;;;5015159;28;20077;-75
2022/05/13 04:45:26;;;;;;;14.20;3.80;;;11.40;99.90;;;;;;5000991;28;20044;-74
2022/05/13 04:48:16;;;;;;;16.08;3.65;;;11.40;99.90;;;;;;5003065;28;20034;-73
2022/05/13 04:51:02;;;;;;;18.77;3.90;;;11.40;99.90;;;;;;5028585;28;20120;-75
2022/05/13 04:53:35;;;;;;;12.73;3.80;;;11.40;99.90;;;;;;5037613;28;20136;-74
2022/05/13 04:56:01;;;;;;;12.38;3.83;;;11.50;99.90;;;;;;5033486;28;20052;-74
2022/05/13 04:58:28;;;;;;;13.88;3.92;;;11.40;99.90;;;;;;5036088;28;20044;-74
2022/05/13 05:00:57;;;;;;;10.52;3.85;;;11.50;99.90;;;;;;5048879;28;20037;-74
2022/05/13 05:03:27;;;;;;;13.82;3.72;;;11.50;99.90;;;;;;5019860;28;20398;-74
2022/05/13 05:05:53;;;;;;;12.80;3.58;;;11.50;99.90;;;;;;5036953;28;20049;-74
2022/05/13 05:08:19;;;;;;;15.02;4.05;;;11.60;99.90;;;;;;4996275;28;20042;-74
2022/05/13 05:10:46;;;;;;;16.05;3.60;;;11.70;99.90;;;;;;5046531;28;20388;-74
2022/05/13 05:13:18;;;;;;;15.65;3.97;;;11.70;99.90;;;;;;5023073;28;20037;-76
2022/05/13 05:15:45;;;;;;;15.48;4.55;;;11.70;99.90;;;;;;5030219;28;20131;-74
2022/05/13 05:18:12;;;;;;;13.07;3.80;;;11.70;99.90;;;;;;5028513;28;20046;-74
2022/05/13 05:20:38;;;;;;;16.70;4.65;;;11.80;99.90;;;;;;5037441;28;20061;-74
2022/05/13 05:23:05;;;;;;;17.85;4.63;;;11.80;99.90;;;;;;5027555;28;20037;-75
2022/05/13 05:25:31;;;;;;;15.63;4.22;;;11.80;99.90;;;;;;5037563;28;20033;-74
2022/05/13 05:27:57;;;;;;;17.23;5.22;;;11.80;99.90;;;;;;5023760;28;20043;-73
2022/05/13 05:30:24;;;;;;;17.23;4.20;;;11.90;99.90;;;;;;5028554;28;20057;-73
2022/05/13 05:32:51;;;;;;;14.50;3.88;;;12.00;99.90;;;;;;5016669;28;20045;-74
2022/05/13 05:35:20;;;;;;;16.05;4.25;;;12.00;99.90;;;;;;5019565;28;20064;-74
2022/05/13 05:37:46;;;;;;;12.48;4.07;;;12.10;99.90;;;;;;5013202;28;20045;-73
2022/05/13 05:40:12;;;;;;;16.60;4.35;;;12.10;99.90;;;;;;4990448;28;20038;-73
2022/05/13 05:42:39;;;;;;;17.23;5.35;;;12.10;99.90;;;;;;5048773;28;20046;-74
2022/05/13 05:45:09;;;;;;;20.98;4.80;;;12.20;99.90;;;;;;5019986;28;20087;-74
2022/05/13 05:47:35;;;;;;;18.73;5.15;;;12.20;99.90;;;;;;5035406;28;20440;-74
2022/05/13 05:50:02;;;;;;;19.80;5.13;;;12.30;99.90;;;;;;5029962;28;20073;-74
2022/05/13 05:52:28;;;;;;;16.30;4.68;;;12.30;99.90;;;;;;5032587;28;20435;-74
2022/05/13 05:57:38;;;;;;;13.63;4.45;;;12.50;99.90;;;;;;5032536;28;20049;-75
2022/05/13 06:00:07;;;;;;;20.20;5.20;;;12.70;99.90;;;;;;5024448;28;20048;-77
2022/05/13 06:02:33;;;;;;;17.20;4.80;;;12.80;99.90;;;;;;5040829;28;20056;-74
2022/05/13 06:04:59;;;;;;;16.40;4.70;;;12.90;99.90;;;;;;5010869;28;20034;-74
2022/05/13 06:07:27;;;;;;;14.57;4.32;;;13.00;99.90;;;;;;5035611;28;20096;-75
2022/05/13 06:09:55;;;;;;;16.23;4.32;;;13.10;99.90;;;;;;5016611;28;20603;-74
2022/05/13 06:12:21;;;;;;;21.92;4.80;;;13.30;99.90;;;;;;5030155;28;20124;-75
2022/05/13 06:14:47;;;;;;;12.88;3.72;;;13.30;99.90;;;;;;5031955;28;20065;-74
2022/05/13 06:17:12;;;;;;;14.00;3.65;;;13.40;99.90;;;;;;5027685;28;20091;-74
2022/05/13 06:19:38;;;;;;;12.90;3.70;;;13.50;99.90;;;;;;5032239;28;20049;-74
2022/05/13 06:22:05;;;;;;;14.27;3.67;;;13.60;99.90;;;;;;5009495;28;20038;-74
2022/05/13 06:24:30;;;;;;;13.80;3.78;;;13.60;99.90;;;;;;5012397;28;20034;-74
2022/05/13 06:26:56;;;;;;;16.05;3.83;;;13.80;99.90;;;;;;5031303;28;20048;-74
2022/05/13 06:29:24;;;;;;;12.80;3.70;;;13.90;99.90;;;;;;5034707;28;20534;-75
2022/05/13 06:31:49;;;;;;;11.18;3.00;;;13.90;99.90;;;;;;5025712;28;20046;-74
2022/05/13 06:34:16;;;;;;;14.02;3.30;;;13.90;99.90;;;;;;5031703;28;20095;-74
2022/05/13 06:36:42;;;;;;;19.38;3.63;;;14.00;99.90;;;;;;5030170;28;20121;-75
2022/05/13 06:39:08;;;;;;;10.88;2.90;;;13.90;99.90;;;;;;5039748;28;20505;-75
2022/05/13 06:41:37;;;;;;;14.02;3.13;;;13.90;99.90;;;;;;5030724;28;20041;-75
2022/05/13 06:44:08;;;;;;;11.95;3.15;;;13.90;99.90;;;;;;5031059;28;20033;-74
2022/05/13 06:46:37;;;;;;;13.13;3.40;;;13.90;99.90;;;;;;5041777;28;20459;-74
2022/05/13 06:49:04;;;;;;;12.73;3.50;;;13.90;99.90;;;;;;5004468;28;20049;-74
2022/05/13 06:51:31;;;;;;;11.05;2.70;;;13.90;99.90;;;;;;5022229;28;20045;-74
2022/05/13 06:54:03;;;;;;;10.57;2.40;;;14.00;99.90;;;;;;5023535;28;20053;-74
2022/05/13 06:56:31;;;;;;;9.13;2.13;;;14.00;99.90;;;;;;5020297;28;20041;-74
2022/05/13 06:58:57;;;;;;;10.38;2.20;;;14.10;99.90;;;;;;5020829;28;20083;-74
2022/05/13 07:01:22;;;;;;;6.75;1.95;;;14.20;99.90;;;;;;5025539;28;20065;-74
2022/05/13 07:03:48;;;;;;;7.30;2.45;;;14.20;99.90;;;;;;5024669;28;20038;-74
2022/05/13 07:06:15;;;;;;;8.35;1.90;;;14.30;99.90;;;;;;5014532;28;20666;-74
2022/05/13 07:08:41;;;;;;;8.25;2.10;;;14.30;99.90;;;;;;5036419;28;20033;-74
2022/05/13 07:11:07;;;;;;;9.02;1.95;;;14.30;99.90;;;;;;5024200;28;20049;-74
2022/05/13 07:13:34;;;;;;;8.48;1.92;;;14.40;99.90;;;;;;5027029;28;20052;-74
2022/05/13 07:16:00;;;;;;;9.30;2.28;;;14.40;99.90;;;;;;5022315;28;20107;-74
2022/05/13 07:18:27;;;;;;;7.15;1.92;;;14.50;99.90;;;;;;5020190;28;20033;-74
2022/05/13 07:20:53;;;;;;;8.75;2.17;;;14.60;99.90;;;;;;5018101;28;20056;-75
2022/05/13 07:23:18;;;;;;;9.60;2.38;;;14.60;99.90;;;;;;5010144;28;20072;-74
2022/05/13 07:25:44;;;;;;;12.18;2.38;;;14.70;99.90;;;;;;5019247;28;20061;-74
2022/05/13 07:28:10;;;;;;;8.63;2.30;;;14.70;99.90;;;;;;5021044;28;20096;-74
2022/05/13 07:30:36;;;;;;;9.80;2.33;;;14.70;99.90;;;;;;5022087;28;20896;-74
2022/05/13 07:33:02;;;;;;;7.22;2.30;;;14.80;99.90;;;;;;5024938;28;20080;-74
2022/05/13 07:35:27;;;;;;;11.48;2.45;;;14.80;99.90;;;;;;5018820;28;20073;-75
2022/05/13 07:37:53;;;;;;;9.38;2.40;;;14.90;99.90;;;;;;5000544;28;20040;-74
2022/05/13 07:43:04;;;;;;;11.63;2.70;;;14.80;99.90;;;;;;5023664;28;20046;-74
2022/05/13 07:45:30;;;;;;;15.70;2.33;;;14.80;99.90;;;;;;5023388;28;20046;-73
2022/05/13 07:47:56;;;;;;;12.48;2.30;;;14.90;99.90;;;;;;5026461;28;20061;-73
2022/05/13 07:50:23;;;;;;;9.75;2.20;;;14.90;99.90;;;;;;5031669;28;20116;-73
2022/05/13 07:52:50;;;;;;;5.55;1.88;;;15.00;99.90;;;;;;5029600;28;20053;-73
2022/05/13 07:55:15;;;;;;;8.20;2.03;;;15.10;99.90;;;;;;5021954;28;20055;-73
2022/05/13 07:57:43;;;;;;;5.25;2.13;;;15.10;99.90;;;;;;5023661;28;20041;-73
2022/05/13 08:00:25;;;;;;;5.30;1.88;;;15.10;99.90;;;;;;5027030;28;20037;-73
2022/05/13 08:03:00;;;;;;;7.27;2.37;;;15.20;99.90;;;;;;5027595;28;20050;-74
2022/05/13 08:05:31;;;;;;;5.85;1.90;;;15.30;99.90;;;;;;5031519;28;20042;-74
2022/05/13 08:08:08;;;;;;;6.30;1.90;;;15.30;99.90;;;;;;5018387;28;20033;-74
2022/05/13 08:10:36;;;;;;;10.10;1.90;;;15.40;99.90;;;;;;5023100;28;20053;-74
2022/05/13 08:13:02;;;;;;;11.23;2.53;;;15.50;99.90;;;;;;5030561;28;20050;-74
2022/05/13 08:15:28;;;;;;;6.78;1.83;;;15.40;99.90;;;;;;5030413;28;20049;-74
2022/05/13 08:17:54;;;;;;;5.78;1.77;;;15.40;99.90;;;;;;5023018;28;20037;-74
2022/05/13 08:20:20;;;;;;;6.03;1.70;;;15.50;99.90;;;;;;5018863;28;20514;-74
2022/05/13 08:22:46;;;;;;;7.88;1.70;;;15.60;99.90;;;;;;5020672;28;20092;-73
2022/05/13 08:25:12;;;;;;;6.15;1.92;;;15.50;99.90;;;;;;5027923;28;20041;-74
2022/05/13 08:27:38;;;;;;;9.25;1.63;;;15.50;99.90;;;;;;5021264;28;20045;-74
2022/05/13 08:30:05;;;;;;;7.55;1.77;;;15.60;99.90;;;;;;5021984;28;20039;-74
2022/05/13 08:32:31;;;;;;;5.95;1.48;;;15.60;99.90;;;;;;5029678;28;20410;-74
2022/05/13 08:34:57;;;;;;;7.20;1.92;;;15.50;99.90;;;;;;5013013;28;20612;-74
2022/05/13 08:37:23;;;;;;;8.35;1.70;;;15.40;99.90;;;;;;5023764;28;20033;-74
2022/05/13 08:39:48;;;;;;;8.20;1.90;;;15.40;99.90;;;;;;5027677;28;20385;-74
2022/05/13 08:42:44;;;;;;;6.38;1.45;;;15.30;99.90;;;;;;5033657;28;20038;-74
2022/05/13 08:45:11;;;;;;;5.40;1.70;;;15.40;99.90;;;;;;5014069;28;20056;-74
2022/05/13 08:47:56;;;;;;;7.97;1.63;;;15.50;99.90;;;;;;5031705;28;20484;-74
2022/05/13 08:50:24;;;;;;;4.18;1.65;;;15.80;99.90;;;;;;5032350;28;20408;-74
2022/05/13 08:53:37;;;;;;;6.28;2.05;;;15.90;99.90;;;;;;5036289;28;20041;-76
2022/05/13 08:56:09;;;;;;;9.48;1.95;;;15.90;99.90;;;;;;5013171;28;20132;-74
2022/05/13 08:58:39;;;;;;;4.57;1.58;;;15.90;99.90;;;;;;5026034;28;20065;-76
2022/05/13 09:01:11;;;;;;;9.38;1.50;;;15.80;99.90;;;;;;5047967;28;20681;-74
2022/05/13 09:03:46;;;;;;;10.65;1.40;;;15.90;99.90;;;;;;5034548;28;20042;-75
2022/05/13 09:06:18;;;;;;;5.13;1.40;;;16.20;99.90;;;;;;5034787;28;20040;-74
2022/05/13 09:08:44;;;;;;;3.97;1.30;;;16.20;99.90;;;;;;5010123;28;20042;-74
2022/05/13 09:11:33;;;;;;;7.68;1.42;;;16.10;99.90;;;;;;5027139;28;20041;-74
2022/05/13 09:14:25;;;;;;;5.72;1.25;;;16.10;99.90;;;;;;5032954;28;20492;-74
2022/05/13 09:17:15;;;;;;;4.28;1.20;;;16.10;99.90;;;;;;5029736;28;20046;-74
2022/05/13 09:19:59;;;;;;;8.60;1.50;;;16.20;99.90;;;;;;5029621;28;20452;-77
2022/05/13 09:22:43;;;;;;;5.65;1.50;;;16.60;99.90;;;;;;5032304;28;20601;-76
2022/05/13 09:25:51;;;;;;;8.63;1.70;;;16.90;99.90;;;;;;5040947;28;20037;-74
2022/05/13 09:28:18;;;;;;;7.07;1.38;;;16.80;99.50;;;;;;5013001;28;20046;-73
2022/05/13 09:30:46;;;;;;;12.25;1.90;;;16.60;99.90;;;;;;5024340;28;20553;-74
2022/05/13 09:33:26;;;;;;;6.03;1.67;;;16.50;99.90;;;;;;5024882;28;20495;-73
2022/05/13 09:35:57;;;;;;;8.35;1.70;;;16.50;99.90;;;;;;5041727;28;20495;-74
2022/05/13 09:38:25;;;;;;;6.03;1.80;;;16.60;99.90;;;;;;5026358;28;20087;-73
2022/05/13 09:41:08;;;;;;;8.00;1.63;;;16.70;99.90;;;;;;5012290;28;20053;-74
2022/05/13 09:43:51;;;;;;;8.15;1.63;;;16.80;99.90;;;;;;5041951;28;20532;-73
2022/05/13 09:46:40;;;;;;;5.22;1.40;;;16.90;99.90;;;;;;5043120;28;20566;-74
2022/05/13 09:49:16;;;;;;;7.13;1.98;;;16.90;99.90;;;;;;5022604;28;20455;-73
2022/05/13 09:51:54;;;;;;;5.55;1.60;;;17.00;99.90;;;;;;5026993;28;20229;-74
2022/05/13 09:54:33;;;;;;;5.75;1.63;;;16.90;99.90;;;;;;5023325;28;20674;-74
2022/05/13 09:57:08;;;;;;;5.57;1.80;;;16.80;99.90;;;;;;5020371;28;20052;-74
2022/05/13 09:59:40;;;;;;;5.65;1.50;;;16.50;99.90;;;;;;5034542;28;20048;-74
2022/05/13 10:02:19;;;;;;;6.55;1.90;;;16.40;99.90;;;;;;5016661;28;20054;-74
2022/05/13 10:04:50;;;;;;;10.27;2.10;;;16.50;99.90;;;;;;5033822;28;20092;-74
2022/05/13 10:07:16;;;;;;;7.93;1.83;;;16.60;99.90;;;;;;5025050;28;20064;-76
2022/05/13 10:15:46;;;;;;;10.90;1.90;;;17.10;99.90;;;;;;5031132;28;20411;-74
2022/05/13 10:18:29;;;;;;;7.22;1.85;;;17.30;99.90;;;;;;5023607;28;20064;-74
2022/05/13 10:21:27;;;;;;;7.40;2.05;;;17.10;99.90;;;;;;5029419;28;20037;-75
2022/05/13 10:24:01;;;;;;;13.93;2.35;;;17.10;99.90;;;;;;5031274;28;20041;-74
2022/05/13 10:26:35;;;;;;;7.88;1.98;;;17.20;99.90;;;;;;5032202;28;20427;-75
2022/05/13 10:29:19;;;;;;;10.00;1.70;;;17.10;99.90;;;;;;5024765;28;20049;-75
2022/05/13 10:31:46;;;;;;;6.85;1.73;;;17.10;99.90;;;;;;5022737;28;20368;-75
2022/05/13 10:34:21;;;;;;;6.22;1.83;;;17.10;99.90;;;;;;5045345;28;20372;-75
2022/05/13 10:37:07;;;;;;;8.18;2.10;;;17.40;99.90;;;;;;5022580;28;20041;-76
2022/05/13 10:39:43;;;;;;;6.60;1.73;;;17.40;99.60;;;;;;5022877;28;20041;-76
2022/05/13 10:42:18;;;;;;;7.50;1.58;;;17.30;99.90;;;;;;5019550;28;20514;-75
2022/05/13 10:45:20;;;;;;;7.85;2.03;;;17.20;99.90;;;;;;5024588;28;20116;-75
2022/05/13 10:48:05;;;;;;;8.75;2.17;;;17.10;99.90;;;;;;5024031;28;20061;-75
2022/05/13 10:50:36;;;;;;;13.23;2.00;;;16.70;99.90;;;;;;5024982;28;20041;-75
2022/05/13 10:53:28;;;;;;;6.88;1.80;;;16.30;99.90;;;;;;5018007;28;20052;-75
2022/05/13 10:56:12;;;;;;;12.32;1.75;;;16.30;99.90;;;;;;5022381;28;20069;-75
2022/05/13 10:59:10;;;;;;;4.60;1.38;;;16.70;99.90;;;;;;5027128;28;20145;-75
2022/05/13 11:02:09;;;;;;;4.53;1.70;;;17.20;99.90;;;;;;5017554;28;20056;-74
2022/05/13 11:04:35;;;;;;;6.05;1.73;;;17.70;99.70;;;;;;5037346;28;20049;-74
2022/05/13 11:07:26;;;;;;;5.93;1.60;;;18.20;97.40;;;;;;5020415;28;20381;-74
2022/05/13 11:10:29;;;;;;;11.13;1.70;;;18.60;92.40;;;;;;5021296;28;20046;-74
2022/05/13 11:13:05;;;;;;;6.55;1.67;;;18.60;85.20;;;;;;5026714;28;20107;-74
2022/05/13 11:16:01;;;;;;;7.03;2.08;;;18.50;90.80;;;;;;5025393;28;20116;-74
2022/05/13 11:18:38;;;;;;;5.70;1.80;;;18.40;83.10;;;;;;5021221;28;20041;-74
2022/05/13 11:21:10;;;;;;;5.97;1.70;;;18.50;92.30;;;;;;5005313;28;20048;-74
2022/05/13 11:26:48;;;;;;;3.42;1.40;;;18.40;82.90;;;;;;5023617;28;20080;-74
2022/05/13 11:29:23;;;;;;;8.45;1.52;;;18.20;82.50;;;;;;5021805;28;20056;-75
2022/05/13 11:32:16;;;;;;;6.15;1.45;;;17.90;83.90;;;;;;5039165;28;20099;-74
2022/05/13 11:35:06;;;;;;;4.78;1.60;;;17.60;81.60;;;;;;5017941;28;20080;-75
2022/05/13 11:37:39;;;;;;;7.57;1.80;;;17.50;86.70;;;;;;5026367;28;20049;-74
2022/05/13 11:40:17;;;;;;;7.60;1.70;;;17.30;93.70;;;;;;5000827;28;20041;-75
2022/05/13 11:45:41;;;;;;;5.10;1.40;;;17.50;94.40;;;;;;5025077;28;20049;-74
2022/05/13 11:48:16;;;;;;;9.88;1.60;;;17.30;91.60;;;;;;5014413;28;20033;-75
2022/05/13 11:50:42;;;;;;;5.38;1.73;;;17.20;90.60;;;;;;5030464;28;20099;-74
2022/05/13 11:53:08;;;;;;;5.75;1.85;;;17.10;92.40;;;;;;4993103;28;20050;-75
2022/05/13 11:55:41;;;;;;;8.02;1.95;;;17.00;93.60;;;;;;5004718;28;20103;-75
2022/05/13 11:58:08;;;;;;;8.20;2.03;;;17.00;94.10;;;;;;5019324;28;20063;-75
2022/05/13 12:00:38;;;;;;;6.07;1.77;;;17.00;96.50;;;;;;5024758;28;20132;-75
2022/05/13 12:03:12;;;;;;;4.50;1.75;;;16.90;94.00;;;;;;5024312;28;20045;-74
2022/05/13 12:05:48;;;;;;;8.05;1.75;;;17.00;98.30;;;;;;5018939;28;20042;-74
2022/05/13 12:08:42;;;;;;;5.40;1.90;;;17.10;97.10;;;;;;5019782;28;20075;-74
2022/05/13 12:11:32;;;;;;;9.57;2.50;;;17.30;96.50;;;;;;5017422;28;20041;-74
2022/05/13 12:14:19;;;;;;;6.55;2.00;;;17.50;94.60;;;;;;5023991;28;20092;-75
2022/05/13 12:17:11;;;;;;;11.45;2.38;;;17.70;91.40;;;;;;5023427;28;20046;-74
2022/05/13 12:19:43;;;;;;;11.15;2.83;;;17.60;90.00;;;;;;5021586;28;20048;-74
2022/05/13 12:22:23;;;;;;;8.77;2.30;;;17.70;90.50;;;;;;5023884;28;20128;-74
2022/05/13 12:25:01;;;;;;;7.93;2.20;;;17.60;90.80;;;;;;5027492;28;20048;-74
2022/05/13 12:27:29;;;;;;;9.02;2.00;;;17.70;90.40;;;;;;5021118;28;20045;-73
2022/05/13 12:30:00;;;;;;;7.20;1.83;;;18.10;86.80;;;;;;5022503;28;20030;-74
2022/05/13 12:32:42;;;;;;;7.00;2.08;;;18.40;84.60;;;;;;5037533;28;20049;-74
2022/05/13 12:38:10;;;;;;;8.27;2.08;;;18.70;80.90;;;;;;5025077;28;20045;-74
2022/05/13 12:40:40;;;;;;;6.55;1.52;;;18.70;73.20;;;;;;5017757;28;20095;-74
2022/05/13 12:43:18;;;;;;;6.22;1.80;;;18.90;74.50;;;;;;5017550;28;20087;-75
2022/05/13 12:45:59;;;;;;;9.20;1.50;;;19.20;72.60;;;;;;4999641;28;20124;-74
2022/05/13 12:48:25;;;;;;;7.22;1.50;;;19.60;73.70;;;;;;5040272;28;20519;-74
2022/05/13 12:51:10;;;;;;;6.18;1.70;;;19.80;67.80;;;;;;5027278;28;20133;-74
2022/05/13 12:53:41;;;;;;;13.57;1.52;;;19.70;67.10;;;;;;5024377;28;20096;-74
2022/05/13 12:56:50;;;;;;;6.10;1.98;;;19.60;68.10;;;;;;5023662;28;20034;-74
2022/05/13 12:59:39;;;;;;;7.80;1.80;;;19.70;66.60;;;;;;4966155;28;20038;-74
2022/05/13 13:02:09;;;;;;;8.57;1.92;;;19.50;64.90;;;;;;5022540;28;20043;-74
2022/05/13 13:04:42;;;;;;;5.55;1.42;;;19.80;66.00;;;;;;5025950;28;20053;-74
2022/05/13 13:07:10;;;;;;;6.47;1.63;;;20.00;65.40;;;;;;5024802;28;20451;-74
2022/05/13 13:09:48;;;;;;;5.80;1.33;;;20.30;66.80;;;;;;5027352;28;20040;-74
2022/05/13 13:12:35;;;;;;;5.15;1.70;;;20.30;63.80;;;;;;5023711;28;20045;-73
2022/05/13 13:15:20;;;;;;;9.55;2.17;;;20.00;64.90;;;;;;5027970;28;20041;-74
2022/05/13 13:17:58;;;;;;;4.93;1.65;;;19.90;64.90;;;;;;5026953;28;20048;-74
2022/05/13 13:20:29;;;;;;;8.20;1.83;;;19.90;68.80;;;;;;5022437;28;20037;-73
2022/05/13 13:23:00;;;;;;;8.23;1.77;;;19.90;67.60;;;;;;5037270;28;20053;-73
2022/05/13 13:25:44;;;;;;;7.82;1.88;;;19.90;66.30;;;;;;5029332;28;20065;-74
2022/05/13 13:28:12;;;;;;;5.70;1.77;;;19.90;67.90;;;;;;5024187;28;20037;-74
2022/05/13 13:30:52;;;;;;;5.13;1.50;;;19.90;67.00;;;;;;5025252;28;20041;-74
2022/05/13 13:33:18;;;;;;;4.82;1.50;;;19.80;67.30;;;;;;5040320;28;20049;-74
2022/05/13 13:35:46;;;;;;;11.02;1.95;;;19.70;66.00;;;;;;5034211;28;20045;-73
2022/05/13 13:38:15;;;;;;;5.15;1.55;;;19.50;66.70;;;;;;4996321;28;20136;-73